Time;durP1;ratioP1;P1;durP2;ratioP2;P2;SDS_P1;SDS_P2;PMS_P1;PMS_P2;Temp;Humidity;BMP_temperature;BMP_pressure;BME280_temperature;BME280_humidity;BME280_pressure;Samples;Min_cycle;Max_cycle;Signal;HPM_P1;HPM_P2
2023/06/13 00:01:35;;;;;;;7.90;5.17;;;19.40;52.40;;;;;;5045169;28;20757;-71
2023/06/13 00:04:03;;;;;;;9.80;5.93;;;19.30;52.40;;;;;;5033600;28;20435;-74
2023/06/13 00:06:29;;;;;;;9.57;6.20;;;19.30;52.60;;;;;;5038800;28;20467;-71
2023/06/13 00:08:56;;;;;;;10.77;5.80;;;19.20;52.50;;;;;;5047943;28;20481;-72
2023/06/13 00:11:22;;;;;;;8.50;5.90;;;19.20;52.80;;;;;;5038520;28;20180;-72
2023/06/13 00:13:47;;;;;;;8.27;5.20;;;19.20;53.00;;;;;;5047279;28;20429;-72
2023/06/13 00:16:14;;;;;;;8.70;5.20;;;19.20;52.80;;;;;;5035353;28;20287;-72
2023/06/13 00:18:40;;;;;;;9.00;5.53;;;19.30;52.80;;;;;;5052213;28;20172;-72
2023/06/13 00:21:06;;;;;;;8.87;5.87;;;19.40;52.80;;;;;;5050758;28;20434;-74
2023/06/13 00:23:32;;;;;;;8.17;6.27;;;19.30;53.00;;;;;;5048499;28;20497;-72
2023/06/13 00:25:57;;;;;;;10.30;6.00;;;19.40;52.50;;;;;;5045946;28;20423;-72
2023/06/13 00:28:23;;;;;;;8.93;5.13;;;19.40;52.40;;;;;;5046222;28;20211;-72
2023/06/13 00:30:49;;;;;;;8.97;5.30;;;19.40;52.40;;;;;;5044931;28;20659;-71
2023/06/13 00:33:16;;;;;;;8.20;5.60;;;19.40;52.40;;;;;;5054797;28;20236;-72
2023/06/13 00:35:42;;;;;;;9.97;5.53;;;19.40;52.50;;;;;;5052027;28;20180;-71
2023/06/13 00:38:08;;;;;;;8.50;5.40;;;19.40;52.40;;;;;;5045930;28;20494;-72
2023/06/13 00:40:33;;;;;;;7.33;5.23;;;19.40;52.40;;;;;;5049236;28;20510;-73
2023/06/13 00:42:59;;;;;;;8.83;5.70;;;19.40;52.40;;;;;;5040175;28;20217;-73
2023/06/13 00:45:26;;;;;;;11.90;5.70;;;19.40;52.40;;;;;;5044101;28;20205;-72
2023/06/13 00:48:01;;;;;;;7.93;5.57;;;19.30;52.80;;;;;;5036523;28;20293;-74
2023/06/13 00:50:30;;;;;;;7.20;4.90;;;19.20;53.00;;;;;;5044770;28;20425;-74
2023/06/13 00:52:58;;;;;;;8.57;5.27;;;19.20;53.40;;;;;;5040391;28;20473;-73
2023/06/13 00:55:25;;;;;;;7.77;5.30;;;19.20;53.30;;;;;;5045607;28;20415;-74
2023/06/13 00:57:56;;;;;;;8.90;5.80;;;19.10;53.60;;;;;;5050289;28;20803;-72
2023/06/13 01:00:25;;;;;;;7.50;5.00;;;19.00;54.00;;;;;;5043097;28;20438;-74
2023/06/13 01:03:06;;;;;;;9.33;5.27;;;19.00;54.10;;;;;;5043696;28;20476;-73
2023/06/13 01:05:35;;;;;;;8.40;6.00;;;18.90;54.40;;;;;;5039298;28;20419;-73
2023/06/13 01:08:06;;;;;;;9.87;6.00;;;18.80;54.80;;;;;;5047804;28;20477;-73
2023/06/13 01:10:33;;;;;;;8.43;5.50;;;18.80;55.00;;;;;;5045870;28;20426;-72
2023/06/13 01:13:14;;;;;;;7.70;4.77;;;18.70;55.30;;;;;;5042475;28;20455;-75
2023/06/13 01:15:57;;;;;;;8.33;5.30;;;18.60;55.40;;;;;;5039317;28;20852;-74
2023/06/13 01:18:24;;;;;;;10.70;6.40;;;18.50;55.70;;;;;;5048783;28;20848;-72
2023/06/13 01:20:56;;;;;;;14.17;5.80;;;18.40;56.00;;;;;;5045115;28;20428;-74
2023/06/13 01:23:58;;;;;;;8.77;5.77;;;18.40;56.00;;;;;;5046094;28;20810;-73
2023/06/13 01:26:52;;;;;;;10.27;5.93;;;18.50;55.80;;;;;;5048297;28;20488;-74
2023/06/13 01:29:19;;;;;;;7.60;5.50;;;18.50;56.00;;;;;;5041173;28;20552;-72
2023/06/13 01:31:47;;;;;;;6.30;4.93;;;18.50;56.10;;;;;;5046268;28;20469;-73
2023/06/13 01:34:13;;;;;;;8.97;5.83;;;18.50;56.10;;;;;;5049225;28;20415;-73
2023/06/13 01:36:39;;;;;;;9.93;5.40;;;18.40;56.20;;;;;;5048329;28;20525;-74
2023/06/13 01:39:05;;;;;;;9.80;6.27;;;18.30;56.50;;;;;;5043643;28;20508;-72
2023/06/13 01:41:30;;;;;;;9.77;5.80;;;18.30;56.80;;;;;;5048403;28;20441;-73
2023/06/13 01:43:56;;;;;;;10.33;5.77;;;18.30;56.90;;;;;;5042699;28;20183;-73
2023/06/13 01:46:29;;;;;;;9.17;5.17;;;18.30;57.00;;;;;;5040231;28;20939;-73
2023/06/13 01:49:00;;;;;;;8.10;5.07;;;18.30;57.00;;;;;;5046049;28;20426;-73
2023/06/13 01:51:49;;;;;;;7.83;5.47;;;18.30;56.90;;;;;;5045506;28;20453;-73
2023/06/13 01:54:20;;;;;;;9.10;5.53;;;18.30;56.80;;;;;;5040345;28;20405;-73
2023/06/13 01:56:50;;;;;;;8.70;5.57;;;18.30;57.00;;;;;;5024323;28;20434;-74
2023/06/13 01:59:18;;;;;;;9.80;5.53;;;18.30;57.00;;;;;;5038285;28;20422;-74
2023/06/13 02:01:46;;;;;;;6.90;5.50;;;18.30;57.00;;;;;;5026421;28;20513;-72
2023/06/13 02:04:12;;;;;;;8.23;5.20;;;18.30;57.00;;;;;;5039848;28;20425;-73
2023/06/13 02:06:37;;;;;;;8.93;5.53;;;18.20;57.20;;;;;;5037106;28;20557;-73
2023/06/13 02:09:03;;;;;;;7.60;5.20;;;18.20;57.30;;;;;;5038178;28;20194;-74
2023/06/13 02:11:29;;;;;;;9.87;5.00;;;18.20;57.30;;;;;;5042772;28;20209;-74
2023/06/13 02:13:55;;;;;;;9.77;5.60;;;18.30;57.30;;;;;;5038005;28;20420;-73
2023/06/13 02:16:25;;;;;;;9.30;5.90;;;18.20;57.40;;;;;;5044818;28;20182;-74
2023/06/13 02:18:51;;;;;;;7.57;5.17;;;18.20;57.60;;;;;;5048460;28;20182;-73
2023/06/13 02:21:17;;;;;;;8.20;5.03;;;18.10;57.60;;;;;;5050022;28;20416;-73
2023/06/13 02:23:43;;;;;;;8.73;5.13;;;18.10;57.80;;;;;;5054923;28;21003;-71
2023/06/13 02:26:08;;;;;;;8.43;5.10;;;18.10;57.70;;;;;;5044067;28;20590;-74
2023/06/13 02:28:34;;;;;;;6.87;4.93;;;18.10;57.60;;;;;;5052814;28;20213;-73
2023/06/13 02:31:00;;;;;;;7.63;4.77;;;18.10;57.70;;;;;;5054719;28;20560;-73
2023/06/13 02:33:30;;;;;;;8.20;5.03;;;18.00;57.80;;;;;;5051203;28;20458;-74
2023/06/13 02:35:55;;;;;;;6.53;4.83;;;18.00;58.00;;;;;;5041972;28;20186;-75
2023/06/13 02:38:21;;;;;;;7.70;4.90;;;18.00;57.80;;;;;;5030700;28;20436;-72
2023/06/13 02:40:47;;;;;;;9.03;4.70;;;18.00;57.80;;;;;;5045795;28;20418;-72
2023/06/13 02:43:12;;;;;;;9.30;4.30;;;18.00;57.80;;;;;;5051810;28;20288;-73
2023/06/13 02:45:38;;;;;;;8.27;4.97;;;18.00;57.80;;;;;;5037533;28;20233;-74
2023/06/13 02:48:04;;;;;;;10.43;5.00;;;18.00;57.70;;;;;;5046043;28;20210;-74
2023/06/13 02:50:29;;;;;;;7.23;4.63;;;18.00;57.60;;;;;;5042968;28;20548;-72
2023/06/13 02:52:55;;;;;;;6.70;4.90;;;18.00;57.70;;;;;;5043005;28;20215;-73
2023/06/13 02:55:20;;;;;;;9.63;5.27;;;17.90;58.00;;;;;;5047843;28;20253;-74
2023/06/13 02:57:46;;;;;;;8.33;5.20;;;17.90;58.00;;;;;;5044124;28;20192;-72
2023/06/13 03:00:15;;;;;;;7.17;4.50;;;17.80;58.10;;;;;;5050319;28;20313;-72
2023/06/13 03:02:40;;;;;;;6.33;4.33;;;17.90;58.00;;;;;;5028129;28;20467;-73
2023/06/13 03:05:09;;;;;;;9.73;5.33;;;17.90;57.80;;;;;;5031826;28;20423;-72
2023/06/13 03:07:35;;;;;;;7.90;4.67;;;17.80;58.00;;;;;;5042525;28;20214;-73
2023/06/13 03:10:03;;;;;;;7.07;4.93;;;17.90;57.80;;;;;;5052832;28;20411;-72
2023/06/13 03:12:29;;;;;;;7.80;4.70;;;17.80;58.00;;;;;;5044928;28;20452;-73
2023/06/13 03:14:54;;;;;;;8.03;4.60;;;17.80;57.80;;;;;;5047832;28;20498;-73
2023/06/13 03:17:21;;;;;;;10.13;5.00;;;17.80;57.70;;;;;;5045033;28;20273;-73
2023/06/13 03:19:46;;;;;;;8.50;4.70;;;17.80;57.70;;;;;;5049607;28;20658;-73
2023/06/13 03:22:14;;;;;;;8.70;5.00;;;17.80;58.00;;;;;;5046474;28;20470;-73
2023/06/13 03:24:41;;;;;;;7.23;4.70;;;17.70;57.80;;;;;;5049984;28;20187;-74
2023/06/13 03:27:07;;;;;;;7.47;5.00;;;17.60;58.10;;;;;;5049432;28;20462;-73
2023/06/13 03:29:32;;;;;;;9.00;5.30;;;17.60;58.10;;;;;;5035123;28;20425;-72
2023/06/13 03:31:58;;;;;;;8.20;5.20;;;17.60;57.80;;;;;;5030717;28;20305;-73
2023/06/13 03:34:28;;;;;;;8.00;4.67;;;17.60;57.80;;;;;;5046808;28;20214;-73
2023/06/13 03:36:54;;;;;;;10.53;5.30;;;17.70;57.70;;;;;;5041578;28;20186;-73
2023/06/13 03:39:20;;;;;;;5.93;4.20;;;17.50;57.80;;;;;;5047939;28;20486;-72
2023/06/13 03:41:46;;;;;;;7.50;4.50;;;17.40;58.20;;;;;;5041072;28;20467;-74
2023/06/13 03:44:11;;;;;;;8.43;4.90;;;17.40;58.40;;;;;;5049201;28;20267;-74
2023/06/13 03:46:37;;;;;;;12.80;5.17;;;17.40;58.10;;;;;;5038661;28;20220;-74
2023/06/13 03:49:03;;;;;;;9.97;4.80;;;17.40;58.10;;;;;;5050660;28;20180;-72
2023/06/13 03:51:29;;;;;;;6.43;4.57;;;17.40;58.20;;;;;;5049680;28;20204;-72
2023/06/13 03:53:57;;;;;;;7.87;4.77;;;17.40;58.20;;;;;;5049552;28;20315;-73
2023/06/13 03:56:23;;;;;;;13.30;5.27;;;17.40;58.40;;;;;;5039478;28;20421;-73
2023/06/13 03:58:48;;;;;;;10.47;5.10;;;17.30;58.20;;;;;;5045506;28;20475;-72
2023/06/13 04:01:16;;;;;;;7.13;4.50;;;17.30;58.50;;;;;;5044863;28;20172;-71
2023/06/13 04:03:42;;;;;;;6.40;4.23;;;17.20;58.40;;;;;;5044423;28;20660;-73
2023/06/13 04:06:08;;;;;;;11.33;4.53;;;17.20;58.50;;;;;;5037304;28;20515;-73
2023/06/13 04:08:36;;;;;;;6.63;4.20;;;17.20;58.20;;;;;;5036177;28;20603;-73
2023/06/13 04:11:02;;;;;;;9.93;4.57;;;17.20;58.50;;;;;;5044236;28;20438;-75
2023/06/13 04:13:28;;;;;;;6.83;5.00;;;17.20;58.50;;;;;;5039728;28;20453;-74
2023/06/13 04:15:54;;;;;;;7.50;4.33;;;17.20;58.70;;;;;;5031966;28;20901;-73
2023/06/13 04:18:21;;;;;;;7.53;4.67;;;17.10;58.70;;;;;;5042573;28;20193;-72
2023/06/13 04:20:47;;;;;;;7.20;4.50;;;17.20;58.40;;;;;;5045455;28;20440;-73
2023/06/13 04:23:13;;;;;;;8.43;4.40;;;17.30;58.10;;;;;;5047872;28;20513;-73
2023/06/13 04:25:40;;;;;;;5.87;4.70;;;17.30;58.20;;;;;;5026885;28;20498;-73
2023/06/13 04:28:06;;;;;;;8.67;4.20;;;17.30;58.10;;;;;;5048401;28;20981;-72
2023/06/13 04:30:31;;;;;;;6.60;4.67;;;17.20;58.20;;;;;;5044374;28;20487;-73
2023/06/13 04:32:57;;;;;;;8.30;4.07;;;17.20;58.50;;;;;;5042626;28;20226;-74
2023/06/13 04:35:26;;;;;;;6.47;4.40;;;17.30;58.50;;;;;;5042773;28;20192;-73
2023/06/13 04:37:52;;;;;;;5.80;4.33;;;17.30;58.80;;;;;;5046100;28;20191;-72
2023/06/13 04:40:18;;;;;;;7.20;5.10;;;17.30;58.20;;;;;;5048643;28;20411;-73
2023/06/13 04:42:51;;;;;;;7.30;4.30;;;17.40;58.20;;;;;;5044012;28;20216;-73
2023/06/13 04:45:20;;;;;;;5.73;4.30;;;17.50;57.60;;;;;;5031304;28;20260;-72
2023/06/13 04:47:47;;;;;;;7.13;4.70;;;17.50;57.60;;;;;;5037121;28;20535;-73
2023/06/13 04:50:14;;;;;;;10.43;4.10;;;17.50;57.60;;;;;;5028970;28;20425;-73
2023/06/13 04:52:41;;;;;;;7.03;3.80;;;17.50;57.70;;;;;;5043289;28;20476;-73
2023/06/13 04:55:07;;;;;;;5.90;4.17;;;17.60;57.20;;;;;;5040142;28;20412;-73
2023/06/13 04:57:32;;;;;;;7.60;4.27;;;17.50;57.00;;;;;;5044048;28;20431;-72
2023/06/13 04:59:59;;;;;;;8.03;4.23;;;17.50;57.20;;;;;;5043100;28;20708;-73
2023/06/13 05:02:25;;;;;;;10.03;4.00;;;17.50;56.60;;;;;;5044701;28;20296;-72
2023/06/13 05:04:52;;;;;;;7.80;4.40;;;17.70;56.40;;;;;;5042545;28;20417;-72
2023/06/13 05:07:19;;;;;;;6.50;4.50;;;17.70;56.10;;;;;;5042392;28;20910;-72
2023/06/13 05:09:45;;;;;;;7.20;4.50;;;17.80;56.00;;;;;;5024263;28;20475;-71
2023/06/13 05:12:11;;;;;;;8.23;4.67;;;17.80;56.40;;;;;;5025320;28;20503;-72
2023/06/13 05:14:40;;;;;;;6.67;4.27;;;17.80;56.20;;;;;;5034096;28;20437;-72
2023/06/13 05:17:06;;;;;;;7.37;4.37;;;17.80;55.80;;;;;;5046399;28;20975;-72
2023/06/13 05:19:35;;;;;;;7.93;4.40;;;17.80;54.60;;;;;;5050438;28;20451;-71
2023/06/13 05:22:05;;;;;;;7.30;3.90;;;17.80;54.90;;;;;;5050151;28;20857;-73
2023/06/13 05:24:32;;;;;;;5.77;3.80;;;17.90;54.40;;;;;;5054307;28;20477;-72
2023/06/13 05:26:58;;;;;;;7.50;4.10;;;17.90;53.80;;;;;;5055945;28;20484;-70
2023/06/13 05:29:24;;;;;;;8.20;4.40;;;17.90;53.20;;;;;;5050522;28;20441;-72
2023/06/13 05:31:50;;;;;;;8.00;4.00;;;17.90;52.60;;;;;;5053023;28;20975;-72
2023/06/13 05:34:15;;;;;;;7.20;4.27;;;17.90;52.60;;;;;;5054619;28;20645;-72
2023/06/13 05:36:41;;;;;;;9.10;4.40;;;18.00;52.20;;;;;;5042359;28;20183;-72
2023/06/13 05:39:08;;;;;;;6.03;4.30;;;18.00;52.00;;;;;;5052087;28;20916;-72
2023/06/13 05:41:33;;;;;;;6.40;4.13;;;18.00;52.00;;;;;;5055252;28;20756;-73
2023/06/13 05:43:59;;;;;;;5.60;4.20;;;18.00;50.90;;;;;;5029763;28;20428;-72
2023/06/13 05:46:25;;;;;;;9.27;4.13;;;18.00;51.00;;;;;;5046389;28;20484;-71
2023/06/13 05:48:51;;;;;;;6.07;4.10;;;18.00;51.40;;;;;;5045945;28;20451;-72
2023/06/13 05:51:16;;;;;;;5.13;3.77;;;18.00;50.70;;;;;;5042678;28;20179;-72
2023/06/13 05:53:42;;;;;;;5.83;3.63;;;18.10;50.30;;;;;;5044640;28;20183;-72
2023/06/13 05:56:07;;;;;;;6.43;4.17;;;18.20;49.50;;;;;;5045829;28;20182;-72
2023/06/13 05:58:34;;;;;;;8.13;3.97;;;18.20;49.80;;;;;;5032462;28;20517;-72
2023/06/13 06:01:00;;;;;;;6.60;4.20;;;18.20;49.50;;;;;;5044611;28;20189;-71
2023/06/13 06:03:25;;;;;;;7.87;4.00;;;18.40;49.50;;;;;;5035029;28;20464;-72
2023/06/13 06:05:51;;;;;;;11.33;4.87;;;18.40;49.00;;;;;;5039806;28;20428;-71
2023/06/13 06:08:16;;;;;;;9.53;5.00;;;18.30;49.00;;;;;;5027991;28;20207;-72
2023/06/13 06:10:42;;;;;;;6.93;4.63;;;18.40;49.30;;;;;;5040836;28;20261;-72
2023/06/13 06:13:08;;;;;;;9.23;4.37;;;18.50;48.70;;;;;;5039791;28;20219;-72
2023/06/13 06:15:35;;;;;;;8.47;4.90;;;18.50;48.50;;;;;;5040249;28;20221;-72
2023/06/13 06:18:00;;;;;;;6.07;4.13;;;18.60;48.30;;;;;;5044242;28;20196;-72
2023/06/13 06:20:26;;;;;;;7.63;3.90;;;18.60;47.90;;;;;;5039729;28;20438;-73
2023/06/13 06:22:51;;;;;;;9.97;4.30;;;18.70;47.90;;;;;;5044706;28;20950;-71
2023/06/13 06:25:20;;;;;;;6.53;3.90;;;18.70;47.50;;;;;;5041018;28;20220;-72
2023/06/13 06:27:50;;;;;;;6.63;3.77;;;18.70;47.70;;;;;;5058590;28;20214;-72
2023/06/13 06:30:16;;;;;;;6.23;4.37;;;18.80;47.00;;;;;;5056927;28;20430;-71
2023/06/13 06:32:42;;;;;;;9.37;4.33;;;18.80;46.20;;;;;;5036818;28;20476;-73
2023/06/13 06:35:07;;;;;;;8.80;4.03;;;18.80;46.20;;;;;;5042560;28;20428;-71
2023/06/13 06:37:33;;;;;;;6.13;3.90;;;18.90;46.20;;;;;;5045222;28;20430;-72
2023/06/13 06:40:00;;;;;;;6.40;4.13;;;18.90;46.10;;;;;;5038731;28;20192;-72
2023/06/13 06:42:25;;;;;;;8.00;4.30;;;19.00;45.30;;;;;;5045475;28;20220;-73
2023/06/13 06:44:51;;;;;;;7.47;4.10;;;18.90;45.00;;;;;;5037169;28;20438;-72
2023/06/13 06:47:17;;;;;;;6.53;3.63;;;18.90;45.30;;;;;;5047961;28;20226;-74
2023/06/13 06:49:42;;;;;;;7.93;4.30;;;19.00;44.70;;;;;;5029937;28;20431;-71
2023/06/13 06:52:08;;;;;;;6.70;4.40;;;18.90;45.00;;;;;;5044380;28;20295;-72
2023/06/13 06:54:34;;;;;;;6.00;4.17;;;19.00;44.70;;;;;;5031611;28;20574;-71
2023/06/13 06:57:02;;;;;;;50.57;12.90;;;19.00;45.00;;;;;;5043165;28;20538;-71
2023/06/13 06:59:27;;;;;;;9.80;4.60;;;19.10;46.10;;;;;;5040278;28;20199;-72
2023/06/13 07:01:53;;;;;;;9.00;3.90;;;19.10;45.00;;;;;;5047337;28;20467;-71
2023/06/13 07:04:18;;;;;;;7.20;4.17;;;19.20;44.70;;;;;;5043850;28;20683;-71
2023/06/13 07:06:44;;;;;;;6.57;3.77;;;19.30;44.50;;;;;;5024678;28;20216;-73
2023/06/13 07:09:10;;;;;;;7.30;4.23;;;19.40;44.60;;;;;;5046662;28;20660;-73
2023/06/13 07:11:36;;;;;;;6.83;3.80;;;19.40;44.60;;;;;;5048053;28;20463;-71
2023/06/13 07:14:01;;;;;;;6.83;3.93;;;19.40;44.30;;;;;;5046467;28;20200;-73
2023/06/13 07:16:27;;;;;;;6.50;4.30;;;19.40;44.10;;;;;;5036224;28;20201;-72
2023/06/13 07:18:52;;;;;;;10.30;4.73;;;19.40;43.90;;;;;;5043113;28;20196;-72
2023/06/13 07:21:18;;;;;;;7.50;4.90;;;19.40;43.80;;;;;;5042651;28;20527;-72
2023/06/13 07:23:44;;;;;;;5.73;3.83;;;19.40;43.10;;;;;;5031452;28;20641;-71
2023/06/13 07:26:11;;;;;;;7.47;4.30;;;19.50;43.10;;;;;;5045273;28;20189;-72
2023/06/13 07:28:37;;;;;;;7.40;4.60;;;19.50;42.70;;;;;;5050733;28;20262;-72
2023/06/13 07:31:02;;;;;;;6.20;4.20;;;19.60;42.70;;;;;;5057646;28;20811;-72
2023/06/13 07:33:28;;;;;;;6.70;3.93;;;19.50;42.40;;;;;;5057401;28;20208;-73
2023/06/13 07:35:56;;;;;;;6.07;3.90;;;19.40;43.40;;;;;;5045311;28;20213;-71
2023/06/13 07:38:22;;;;;;;6.97;4.67;;;19.50;43.50;;;;;;5047301;28;20663;-72
2023/06/13 07:40:47;;;;;;;6.57;4.10;;;19.70;43.10;;;;;;5062635;28;20431;-72
2023/06/13 07:43:13;;;;;;;6.90;4.77;;;19.70;43.20;;;;;;5040638;28;20468;-72
2023/06/13 07:45:39;;;;;;;6.07;3.77;;;19.80;42.80;;;;;;5057596;28;20205;-71
2023/06/13 07:48:04;;;;;;;9.60;5.23;;;19.80;42.80;;;;;;5027936;28;20619;-72
2023/06/13 07:50:30;;;;;;;10.07;4.87;;;19.80;42.30;;;;;;5045217;28;20215;-72
2023/06/13 07:52:55;;;;;;;13.23;3.90;;;19.70;42.30;;;;;;5047421;28;20254;-72
2023/06/13 07:55:21;;;;;;;8.17;4.77;;;19.80;43.00;;;;;;5052382;28;20190;-72
2023/06/13 07:57:47;;;;;;;5.27;3.57;;;19.90;42.40;;;;;;5057258;28;20682;-73
2023/06/13 08:00:17;;;;;;;6.97;4.50;;;20.00;42.20;;;;;;5043181;28;20919;-71
2023/06/13 08:02:46;;;;;;;6.03;4.47;;;20.10;41.90;;;;;;5045106;28;20555;-73
2023/06/13 08:05:13;;;;;;;7.00;4.20;;;20.10;40.30;;;;;;5044928;28;20431;-70
2023/06/13 08:07:38;;;;;;;7.50;4.20;;;20.10;40.40;;;;;;5043179;28;20487;-71
2023/06/13 08:10:05;;;;;;;6.53;3.70;;;20.20;39.80;;;;;;5050171;28;20416;-72
2023/06/13 08:12:30;;;;;;;5.10;4.13;;;20.30;39.40;;;;;;5042713;28;20605;-72
2023/06/13 08:14:56;;;;;;;10.60;4.00;;;20.20;39.60;;;;;;5049178;28;20428;-72
2023/06/13 08:17:24;;;;;;;6.70;4.07;;;20.20;39.10;;;;;;5044405;28;20198;-71
2023/06/13 08:19:50;;;;;;;5.57;3.70;;;20.30;39.50;;;;;;5049251;28;20189;-72
2023/06/13 08:22:17;;;;;;;8.83;4.33;;;20.40;38.80;;;;;;5043229;28;20956;-72
2023/06/13 08:24:43;;;;;;;7.70;5.27;;;20.40;39.40;;;;;;5059125;28;20426;-72
2023/06/13 08:27:10;;;;;;;8.10;4.40;;;20.50;39.20;;;;;;5064022;28;20482;-72
2023/06/13 08:29:36;;;;;;;7.43;4.30;;;20.60;40.30;;;;;;5058227;28;20427;-72
2023/06/13 08:32:02;;;;;;;7.47;5.00;;;20.60;40.40;;;;;;5044074;28;20455;-73
2023/06/13 08:34:28;;;;;;;12.03;4.50;;;20.60;41.00;;;;;;5033640;28;20417;-73
2023/06/13 08:36:54;;;;;;;5.60;4.20;;;20.50;41.10;;;;;;5046029;28;20792;-70
2023/06/13 08:39:20;;;;;;;10.83;4.73;;;20.70;41.50;;;;;;5046738;28;20182;-71
2023/06/13 08:41:46;;;;;;;11.63;4.80;;;20.70;41.20;;;;;;5042989;28;20453;-72
2023/06/13 08:44:12;;;;;;;8.37;4.50;;;20.70;41.40;;;;;;5048875;28;20424;-72
2023/06/13 08:46:37;;;;;;;8.90;4.73;;;20.80;41.10;;;;;;5035327;28;20282;-73
2023/06/13 08:49:03;;;;;;;8.87;4.60;;;20.90;41.00;;;;;;5047847;28;20189;-72
2023/06/13 08:51:30;;;;;;;6.87;4.53;;;20.90;39.90;;;;;;5045515;28;20257;-72
2023/06/13 08:54:05;;;;;;;10.30;4.90;;;20.80;39.00;;;;;;5045180;28;20512;-72
2023/06/13 08:56:40;;;;;;;7.13;4.90;;;20.90;37.60;;;;;;5043716;28;20510;-71
2023/06/13 08:59:14;;;;;;;10.40;4.67;;;20.80;38.70;;;;;;5045595;28;20424;-71
2023/06/13 09:01:43;;;;;;;8.73;4.70;;;21.00;39.10;;;;;;5038564;28;20460;-71
2023/06/13 09:04:11;;;;;;;6.70;4.70;;;21.10;38.60;;;;;;5044966;28;20455;-73
2023/06/13 09:06:37;;;;;;;12.13;4.73;;;21.10;38.30;;;;;;5037347;28;20470;-71
2023/06/13 09:09:06;;;;;;;10.23;5.20;;;21.10;37.80;;;;;;5044811;28;20511;-71
2023/06/13 09:11:33;;;;;;;6.83;4.50;;;21.20;37.20;;;;;;5044530;28;20525;-74
2023/06/13 09:14:00;;;;;;;7.63;4.60;;;21.20;37.40;;;;;;5045574;28;20422;-70
2023/06/13 09:16:27;;;;;;;10.43;4.43;;;21.30;37.60;;;;;;5043647;28;20758;-72
2023/06/13 09:18:53;;;;;;;14.27;4.53;;;21.40;37.10;;;;;;5041738;28;20417;-71
2023/06/13 09:21:20;;;;;;;6.50;4.60;;;21.50;37.00;;;;;;5048124;28;20412;-71
2023/06/13 09:23:48;;;;;;;8.80;5.00;;;21.50;37.60;;;;;;5043518;28;20449;-74
2023/06/13 09:26:15;;;;;;;8.23;4.83;;;21.40;39.20;;;;;;5053602;28;20771;-71
2023/06/13 09:28:42;;;;;;;7.37;4.80;;;21.50;39.60;;;;;;5041013;28;20462;-72
2023/06/13 09:31:08;;;;;;;11.67;4.70;;;21.20;39.00;;;;;;5042978;28;20455;-72
2023/06/13 09:33:35;;;;;;;6.67;4.50;;;21.40;39.80;;;;;;5046318;28;20453;-71
2023/06/13 09:36:01;;;;;;;5.10;4.10;;;21.60;39.50;;;;;;5030303;28;20421;-71
2023/06/13 09:38:26;;;;;;;15.70;4.70;;;21.70;38.00;;;;;;5038381;28;20427;-71
2023/06/13 09:40:56;;;;;;;13.40;4.97;;;21.70;36.70;;;;;;5047464;28;20519;-72
2023/06/13 09:43:23;;;;;;;7.47;4.80;;;21.80;36.20;;;;;;5050664;28;20266;-71
2023/06/13 09:45:50;;;;;;;8.47;4.60;;;21.70;35.90;;;;;;5044112;28;20438;-71
2023/06/13 09:48:18;;;;;;;7.73;4.73;;;21.80;35.60;;;;;;5046047;28;20474;-71
2023/06/13 09:50:43;;;;;;;8.27;5.03;;;21.90;35.70;;;;;;5049008;28;20430;-72
2023/06/13 09:53:09;;;;;;;8.80;4.90;;;22.10;35.70;;;;;;5047369;28;20877;-71
2023/06/13 09:55:36;;;;;;;8.03;5.30;;;22.10;35.60;;;;;;5047321;28;20192;-72
2023/06/13 09:58:02;;;;;;;6.80;4.40;;;21.90;34.80;;;;;;5051835;28;20188;-72
2023/06/13 10:00:29;;;;;;;7.77;4.53;;;21.80;34.80;;;;;;5050224;28;20544;-70
2023/06/13 10:02:56;;;;;;;9.33;4.70;;;22.00;34.30;;;;;;5053588;28;20467;-72
2023/06/13 10:05:22;;;;;;;9.00;4.70;;;22.20;34.00;;;;;;5026335;28;20467;-73
2023/06/13 10:07:48;;;;;;;7.40;4.20;;;22.20;34.40;;;;;;5053538;28;20484;-74
2023/06/13 10:10:14;;;;;;;6.97;4.30;;;22.40;32.80;;;;;;5049000;28;20517;-73
2023/06/13 10:12:45;;;;;;;8.37;4.80;;;22.60;32.50;;;;;;5047664;28;20207;-73
2023/06/13 10:15:14;;;;;;;7.50;4.60;;;22.90;32.50;;;;;;5052640;28;20422;-71
2023/06/13 10:17:45;;;;;;;9.20;4.97;;;22.70;33.20;;;;;;5050799;28;20453;-72
2023/06/13 10:20:15;;;;;;;7.63;4.83;;;22.80;33.70;;;;;;5050634;28;20794;-71
2023/06/13 10:22:41;;;;;;;9.33;4.43;;;23.20;32.70;;;;;;5049580;28;20889;-73
2023/06/13 10:25:11;;;;;;;9.20;4.90;;;23.10;32.10;;;;;;5050559;28;20417;-71
2023/06/13 10:27:43;;;;;;;13.80;5.40;;;23.20;32.10;;;;;;5047377;28;20971;-73
2023/06/13 10:30:20;;;;;;;9.87;4.80;;;23.60;31.70;;;;;;5031633;28;21123;-72
2023/06/13 10:33:14;;;;;;;6.50;4.50;;;23.70;31.70;;;;;;5051882;28;20458;-72
2023/06/13 10:35:55;;;;;;;7.80;4.50;;;24.10;30.30;;;;;;5045982;28;20444;-72
2023/06/13 10:39:10;;;;;;;8.80;4.13;;;24.20;30.30;;;;;;5056073;28;20432;-72
2023/06/13 10:42:03;;;;;;;8.40;5.00;;;24.00;31.50;;;;;;4994362;28;20470;-71
2023/06/13 10:44:32;;;;;;;8.40;5.07;;;24.30;30.10;;;;;;4991249;28;20512;-71
2023/06/13 10:46:59;;;;;;;7.97;4.67;;;24.30;29.40;;;;;;4996780;28;20467;-73
2023/06/13 10:49:35;;;;;;;10.30;4.97;;;24.40;29.70;;;;;;5000121;28;20783;-73
2023/06/13 10:52:01;;;;;;;5.80;4.60;;;24.50;29.60;;;;;;4993340;28;20492;-74
2023/06/13 10:54:28;;;;;;;10.00;4.90;;;24.20;30.30;;;;;;4999475;28;20426;-74
2023/06/13 10:57:00;;;;;;;8.37;4.53;;;23.90;30.70;;;;;;5000958;28;20447;-72
2023/06/13 10:59:36;;;;;;;9.73;4.73;;;24.20;30.30;;;;;;4997708;28;20435;-72
2023/06/13 11:02:03;;;;;;;7.03;4.77;;;24.00;30.70;;;;;;4993098;28;20471;-74
2023/06/13 11:04:30;;;;;;;9.47;4.73;;;24.20;30.50;;;;;;4993295;28;20430;-73
2023/06/13 11:07:23;;;;;;;10.70;5.30;;;24.30;30.70;;;;;;4995757;28;20497;-73
2023/06/13 11:10:15;;;;;;;7.77;5.30;;;24.60;30.30;;;;;;4996050;28;20424;-73
2023/06/13 11:12:42;;;;;;;13.40;4.87;;;24.60;29.40;;;;;;4988155;28;20460;-72
2023/06/13 11:15:25;;;;;;;7.10;4.23;;;24.50;29.70;;;;;;4998185;28;20605;-73
2023/06/13 11:18:06;;;;;;;6.13;4.70;;;23.90;31.70;;;;;;5023401;28;20421;-73
2023/06/13 11:20:32;;;;;;;9.00;5.07;;;24.50;30.90;;;;;;5027578;28;20430;-74
2023/06/13 11:22:57;;;;;;;9.03;4.70;;;24.90;29.10;;;;;;5044681;28;20468;-74
2023/06/13 11:25:24;;;;;;;8.87;4.70;;;24.90;29.00;;;;;;5027358;28;20183;-73
2023/06/13 11:27:50;;;;;;;6.00;4.63;;;25.20;28.20;;;;;;5036915;28;20223;-74
2023/06/13 11:30:17;;;;;;;7.10;4.90;;;25.00;27.60;;;;;;5043100;28;20425;-75
2023/06/13 11:32:43;;;;;;;6.60;4.90;;;24.80;27.90;;;;;;5051026;28;20458;-75
2023/06/13 11:35:12;;;;;;;7.83;4.67;;;24.70;28.50;;;;;;5045045;28;20978;-72
2023/06/13 11:37:44;;;;;;;7.50;5.23;;;25.00;28.10;;;;;;5051067;28;20877;-75
2023/06/13 11:40:22;;;;;;;6.93;4.80;;;25.30;27.70;;;;;;5045557;28;20468;-75
2023/06/13 11:42:49;;;;;;;7.30;4.87;;;25.30;28.50;;;;;;5051987;28;20485;-73
2023/06/13 11:45:15;;;;;;;9.50;4.87;;;25.20;28.60;;;;;;5044298;28;20469;-74
2023/06/13 11:47:43;;;;;;;8.33;5.00;;;25.00;28.70;;;;;;5048835;28;20494;-75
2023/06/13 11:50:09;;;;;;;8.70;4.20;;;25.20;28.60;;;;;;5046494;28;20186;-73
2023/06/13 11:52:35;;;;;;;7.50;5.27;;;25.40;28.80;;;;;;5049630;28;20516;-72
2023/06/13 11:55:01;;;;;;;7.57;4.73;;;25.60;27.80;;;;;;5045444;28;20241;-73
2023/06/13 11:57:46;;;;;;;7.97;4.53;;;25.90;27.80;;;;;;5047238;28;20225;-76
2023/06/13 12:00:12;;;;;;;8.03;4.80;;;26.10;27.00;;;;;;5050209;28;20419;-73
2023/06/13 12:02:38;;;;;;;9.10;5.20;;;25.90;27.40;;;;;;5032399;28;20466;-74
2023/06/13 12:05:05;;;;;;;8.63;5.03;;;25.90;28.30;;;;;;5047687;28;20419;-72
2023/06/13 12:07:33;;;;;;;8.33;5.13;;;25.90;28.90;;;;;;5051683;28;20548;-73
2023/06/13 12:09:59;;;;;;;7.30;4.63;;;25.90;28.70;;;;;;5048169;28;20415;-74
2023/06/13 12:12:24;;;;;;;8.70;4.70;;;25.80;28.60;;;;;;5049158;28;20477;-74
2023/06/13 12:14:56;;;;;;;8.33;5.20;;;26.10;28.40;;;;;;5050320;28;20263;-73
2023/06/13 12:17:23;;;;;;;10.37;5.30;;;26.20;27.90;;;;;;5044668;28;20884;-74
2023/06/13 12:19:49;;;;;;;6.93;4.87;;;26.10;28.10;;;;;;5049248;28;20456;-73
2023/06/13 12:22:15;;;;;;;8.73;4.97;;;26.30;28.20;;;;;;5043196;28;20463;-72
2023/06/13 12:24:42;;;;;;;13.23;5.60;;;26.50;28.20;;;;;;5045019;28;20200;-73
2023/06/13 12:27:07;;;;;;;9.83;5.13;;;26.60;28.10;;;;;;5045084;28;20580;-72
2023/06/13 12:29:34;;;;;;;7.13;4.80;;;26.40;28.40;;;;;;5051475;28;20508;-72
2023/06/13 12:32:03;;;;;;;8.93;5.50;;;26.80;27.90;;;;;;5040045;28;20208;-73
2023/06/13 12:34:34;;;;;;;8.77;5.47;;;26.70;28.10;;;;;;5051232;28;20902;-76
2023/06/13 12:37:06;;;;;;;7.93;5.10;;;27.00;27.50;;;;;;5042776;28;20420;-72
2023/06/13 12:39:32;;;;;;;11.27;5.40;;;26.80;27.10;;;;;;5047623;28;20427;-74
2023/06/13 12:42:07;;;;;;;6.30;4.93;;;27.30;26.80;;;;;;5043914;28;20555;-72
2023/06/13 12:44:34;;;;;;;9.63;5.07;;;27.00;26.10;;;;;;5039462;28;20521;-72
2023/06/13 12:47:04;;;;;;;8.77;4.93;;;27.20;26.40;;;;;;5045143;28;20465;-74
2023/06/13 12:49:37;;;;;;;9.53;5.73;;;26.80;27.00;;;;;;5048060;28;20439;-74